Time,TemperatureF,DewpointF,PressureIn,WindDirection,WindDirectionDegrees,WindSpeedMPH,WindSpeedGustMPH,Humidity,HourlyPrecipIn,Conditions,Clouds,dailyrainin,SolarRadiationWatts/m^2,SoftwareType,DateUTC
2013-06-05 00:02:00,59.0,37.0,-100.00,NW,307,5.0,9.0,44,0.00,,,0.00,0.000000,,2013-06-05 07:02:00,
2013-06-05 00:12:00,59.0,37.0,-100.00,NW,307,5.0,9.0,44,0.00,,,0.00,0.000000,,2013-06-05 07:12:00,
2013-06-05 00:32:00,55.0,37.0,-100.00,West,271,5.0,7.0,50,0.00,,,0.00,0.000000,,2013-06-05 07:32:00,
2013-06-05 00:42:00,55.0,37.0,-100.00,West,271,5.0,7.0,50,0.00,,,0.00,0.000000,,2013-06-05 07:42:00,
2013-06-05 00:52:00,55.0,37.0,-100.00,West,271,5.0,7.0,50,0.00,,,0.00,0.000000,,2013-06-05 07:52:00,
2013-06-05 01:02:00,55.0,37.0,-100.00,West,271,5.0,7.0,50,0.00,,,0.00,0.000000,,2013-06-05 08:02:00,
2013-06-05 01:12:00,55.0,37.0,-100.00,West,271,5.0,7.0,50,0.00,,,0.00,0.000000,,2013-06-05 08:12:00,
2013-06-05 01:32:00,52.0,36.0,-100.00,West,277,7.0,9.0,55,0.00,,,0.00,0.000000,,2013-06-05 08:32:00,
2013-06-05 01:42:00,52.0,36.0,-100.00,West,277,7.0,9.0,55,0.00,,,0.00,0.000000,,2013-06-05 08:42:00,
2013-06-05 01:52:00,52.0,36.0,-100.00,West,277,7.0,9.0,55,0.00,,,0.00,0.000000,,2013-06-05 08:52:00,
2013-06-05 02:02:00,52.0,36.0,-100.00,West,277,7.0,9.0,55,0.00,,,0.00,0.000000,,2013-06-05 09:02:00,
2013-06-05 02:12:00,52.0,36.0,-100.00,West,277,7.0,9.0,55,0.00,,,0.00,0.000000,,2013-06-05 09:12:00,
2013-06-05 02:33:00,52.0,37.0,-100.00,West,271,5.0,9.0,56,0.00,,,0.00,0.000000,,2013-06-05 09:33:00,
2013-06-05 02:43:00,52.0,37.0,-100.00,West,271,5.0,9.0,56,0.00,,,0.00,0.000000,,2013-06-05 09:43:00,
2013-06-05 02:53:00,52.0,37.0,-100.00,West,271,5.0,9.0,56,0.00,,,0.00,0.000000,,2013-06-05 09:53:00,
2013-06-05 03:02:00,52.0,37.0,-100.00,West,271,5.0,9.0,56,0.00,,,0.00,0.000000,,2013-06-05 10:02:00,
2013-06-05 03:12:00,52.0,37.0,-100.00,West,271,5.0,9.0,56,0.00,,,0.00,0.000000,,2013-06-05 10:12:00,
2013-06-05 03:33:00,51.0,36.0,-100.00,WSW,245,4.0,6.0,57,0.00,,,0.00,0.000000,,2013-06-05 10:33:00,
2013-06-05 03:42:00,51.0,36.0,-100.00,WSW,245,4.0,6.0,57,0.00,,,0.00,0.000000,,2013-06-05 10:42:00,
2013-06-05 03:52:00,51.0,36.0,-100.00,WSW,245,4.0,6.0,57,0.00,,,0.00,0.000000,,2013-06-05 10:52:00,
2013-06-05 04:02:00,51.0,36.0,-100.00,WSW,245,4.0,6.0,57,0.00,,,0.00,0.000000,,2013-06-05 11:02:00,
2013-06-05 04:11:00,51.0,36.0,-100.00,WSW,245,4.0,6.0,57,0.00,,,0.00,0.000000,,2013-06-05 11:11:00,
2013-06-05 04:33:00,50.0,36.0,-100.00,WSW,258,4.0,6.0,58,0.00,,,0.00,0.000000,,2013-06-05 11:33:00,
2013-06-05 04:42:00,50.0,36.0,-100.00,WSW,258,4.0,6.0,58,0.00,,,0.00,0.000000,,2013-06-05 11:42:00,
2013-06-05 04:52:00,50.0,36.0,-100.00,WSW,258,4.0,6.0,58,0.00,,,0.00,0.000000,,2013-06-05 11:52:00,
2013-06-05 05:02:00,50.0,36.0,-100.00,WSW,258,4.0,6.0,58,0.00,,,0.00,0.000000,,2013-06-05 12:02:00,
2013-06-05 05:11:00,50.0,36.0,-100.00,WSW,258,4.0,6.0,58,0.00,,,0.00,0.000000,,2013-06-05 12:11:00,
2013-06-05 05:32:00,49.0,36.0,-100.00,West,262,5.0,7.0,61,0.00,,,0.00,0.000000,,2013-06-05 12:32:00,
2013-06-05 05:44:00,49.0,36.0,-100.00,West,262,5.0,7.0,61,0.00,,,0.00,0.000000,,2013-06-05 12:44:00,
2013-06-05 05:52:00,49.0,36.0,-100.00,West,262,5.0,7.0,61,0.00,,,0.00,0.000000,,2013-06-05 12:52:00,
2013-06-05 06:02:00,49.0,36.0,-100.00,West,262,5.0,7.0,61,0.00,,,0.00,0.000000,,2013-06-05 13:02:00,
2013-06-05 06:12:00,49.0,36.0,-100.00,West,262,5.0,7.0,61,0.00,,,0.00,0.000000,,2013-06-05 13:12:00,
2013-06-05 06:33:00,50.0,38.0,-100.00,WSW,247,5.0,7.0,62,0.00,,,0.00,11.000000,,2013-06-05 13:33:00,
2013-06-05 06:42:00,50.0,38.0,-100.00,WSW,247,5.0,7.0,62,0.00,,,0.00,11.000000,,2013-06-05 13:42:00,
2013-06-05 06:52:00,50.0,38.0,-100.00,WSW,247,5.0,7.0,62,0.00,,,0.00,11.000000,,2013-06-05 13:52:00,
2013-06-05 07:02:00,50.0,38.0,-100.00,WSW,247,5.0,7.0,62,0.00,,,0.00,11.000000,,2013-06-05 14:02:00,
2013-06-05 07:12:00,50.0,38.0,-100.00,WSW,247,5.0,7.0,62,0.00,,,0.00,11.000000,,2013-06-05 14:12:00,
2013-06-05 07:32:00,58.0,43.0,-100.00,West,264,2.0,8.0,57,0.00,,,0.00,146.000000,,2013-06-05 14:32:00,
2013-06-05 07:42:00,58.0,43.0,-100.00,West,264,2.0,8.0,57,0.00,,,0.00,146.000000,,2013-06-05 14:42:00,
2013-06-05 07:52:00,58.0,43.0,-100.00,West,264,2.0,8.0,57,0.00,,,0.00,146.000000,,2013-06-05 14:52:00,
2013-06-05 08:02:00,58.0,43.0,-100.00,West,264,2.0,8.0,57,0.00,,,0.00,146.000000,,2013-06-05 15:02:00,
2013-06-05 08:12:00,58.0,43.0,-100.00,West,264,2.0,8.0,57,0.00,,,0.00,146.000000,,2013-06-05 15:12:00,
2013-06-05 08:33:00,65.0,45.0,-100.00,SSE,157,3.0,6.0,48,-99.99,,,0.00,232.000000,,2013-06-05 15:33:00,
2013-06-05 08:43:00,65.0,45.0,-100.00,SSE,157,3.0,6.0,48,-99.99,,,0.00,232.000000,,2013-06-05 15:43:00,
2013-06-05 08:53:00,65.0,45.0,-100.00,SSE,157,3.0,6.0,48,-99.99,,,0.00,232.000000,,2013-06-05 15:53:00,
2013-06-05 09:03:00,65.0,45.0,-100.00,SSE,157,3.0,6.0,48,-99.99,,,0.00,232.000000,,2013-06-05 16:03:00,
2013-06-05 09:32:00,69.0,41.0,-100.00,SSE,150,4.0,9.0,36,-99.99,,,0.00,412.000000,,2013-06-05 16:32:00,
2013-06-05 09:42:00,69.0,41.0,-100.00,SSE,150,4.0,9.0,36,-99.99,,,0.00,412.000000,,2013-06-05 16:42:00,
2013-06-05 09:54:00,69.0,41.0,-100.00,SSE,150,4.0,9.0,36,-99.99,,,0.00,412.000000,,2013-06-05 16:54:00,
2013-06-05 10:02:00,69.0,41.0,-100.00,SSE,150,4.0,9.0,36,-99.99,,,0.00,412.000000,,2013-06-05 17:02:00,
2013-06-05 10:12:00,69.0,41.0,-100.00,SSE,150,4.0,9.0,36,-99.99,,,0.00,412.000000,,2013-06-05 17:12:00,
2013-06-05 10:33:00,73.0,39.0,-100.00,North,356,4.0,8.0,29,0.00,,,0.00,420.000000,,2013-06-05 17:33:00,
2013-06-05 10:43:00,73.0,39.0,-100.00,North,356,4.0,8.0,29,0.00,,,0.00,420.000000,,2013-06-05 17:43:00,
2013-06-05 10:52:00,73.0,39.0,-100.00,North,356,4.0,8.0,29,0.00,,,0.00,420.000000,,2013-06-05 17:52:00,
2013-06-05 11:02:00,73.0,39.0,-100.00,North,356,4.0,8.0,29,0.00,,,0.00,420.000000,,2013-06-05 18:02:00,
2013-06-05 11:12:00,73.0,39.0,-100.00,North,356,4.0,8.0,29,0.00,,,0.00,420.000000,,2013-06-05 18:12:00,
2013-06-05 11:32:00,76.0,39.0,-100.00,NNW,338,6.0,10.0,26,0.00,,,0.00,320.000000,,2013-06-05 18:32:00,
2013-06-05 11:42:00,76.0,39.0,-100.00,NNW,338,6.0,10.0,26,0.00,,,0.00,320.000000,,2013-06-05 18:42:00,
2013-06-05 11:52:00,76.0,39.0,-100.00,NNW,338,6.0,10.0,26,0.00,,,0.00,320.000000,,2013-06-05 18:52:00,
2013-06-05 12:02:00,76.0,39.0,-100.00,NNW,338,6.0,10.0,26,0.00,,,0.00,320.000000,,2013-06-05 19:02:00,
2013-06-05 12:12:00,76.0,39.0,-100.00,NNW,338,6.0,10.0,26,0.00,,,0.00,320.000000,,2013-06-05 19:12:00,
2013-06-05 12:32:00,79.0,41.0,-100.00,North,353,6.0,11.0,26,0.00,,,0.00,51.000000,,2013-06-05 19:32:00,
2013-06-05 12:42:00,79.0,41.0,-100.00,North,353,6.0,11.0,26,0.00,,,0.00,51.000000,,2013-06-05 19:42:00,
2013-06-05 12:53:00,79.0,41.0,-100.00,North,353,6.0,11.0,26,0.00,,,0.00,51.000000,,2013-06-05 19:53:00,
2013-06-05 13:02:00,79.0,41.0,-100.00,North,353,6.0,11.0,26,0.00,,,0.00,51.000000,,2013-06-05 20:02:00,
2013-06-05 13:12:00,79.0,41.0,-100.00,North,353,6.0,11.0,26,0.00,,,0.00,51.000000,,2013-06-05 20:12:00,
2013-06-05 13:32:00,82.0,42.0,-100.00,ENE,67,6.0,14.0,24,0.00,,,0.00,246.000000,,2013-06-05 20:32:00,
2013-06-05 13:42:00,82.0,42.0,-100.00,ENE,67,6.0,14.0,24,0.00,,,0.00,246.000000,,2013-06-05 20:42:00,
2013-06-05 13:52:00,82.0,42.0,-100.00,ENE,67,6.0,14.0,24,0.00,,,0.00,246.000000,,2013-06-05 20:52:00,
2013-06-05 14:02:00,82.0,42.0,-100.00,ENE,67,6.0,14.0,24,0.00,,,0.00,246.000000,,2013-06-05 21:02:00,
2013-06-05 14:12:00,82.0,42.0,-100.00,ENE,67,6.0,14.0,24,0.00,,,0.00,246.000000,,2013-06-05 21:12:00,
2013-06-05 14:33:00,84.0,41.0,-100.00,North,10,5.0,15.0,22,0.00,,,0.00,1017.000000,,2013-06-05 21:33:00,
2013-06-05 14:43:00,84.0,41.0,-100.00,North,10,5.0,15.0,22,0.00,,,0.00,1017.000000,,2013-06-05 21:43:00,
2013-06-05 14:53:00,84.0,41.0,-100.00,North,10,5.0,15.0,22,0.00,,,0.00,1017.000000,,2013-06-05 21:53:00,
2013-06-05 15:02:00,84.0,41.0,-100.00,North,10,5.0,15.0,22,0.00,,,0.00,1017.000000,,2013-06-05 22:02:00,
2013-06-05 15:12:00,84.0,41.0,-100.00,North,10,5.0,15.0,22,0.00,,,0.00,1017.000000,,2013-06-05 22:12:00,
2013-06-05 15:33:00,85.0,42.0,-100.00,NNW,344,9.0,15.0,22,0.00,,,0.00,961.000000,,2013-06-05 22:33:00,
2013-06-05 15:43:00,85.0,42.0,-100.00,NNW,344,9.0,15.0,22,0.00,,,0.00,961.000000,,2013-06-05 22:43:00,
2013-06-05 15:52:00,85.0,42.0,-100.00,NNW,344,9.0,15.0,22,0.00,,,0.00,961.000000,,2013-06-05 22:52:00,
2013-06-05 16:02:00,85.0,42.0,-100.00,NNW,344,9.0,15.0,22,0.00,,,0.00,961.000000,,2013-06-05 23:02:00,
2013-06-05 16:12:00,85.0,42.0,-100.00,NNW,344,9.0,15.0,22,0.00,,,0.00,961.000000,,2013-06-05 23:12:00,
2013-06-05 16:32:00,86.0,38.0,-100.00,North,350,6.0,16.0,18,0.00,,,0.00,895.000000,,2013-06-05 23:32:00,
2013-06-05 16:42:00,86.0,38.0,-100.00,North,350,6.0,16.0,18,0.00,,,0.00,895.000000,,2013-06-05 23:42:00,
2013-06-05 16:53:00,86.0,38.0,-100.00,North,350,6.0,16.0,18,0.00,,,0.00,895.000000,,2013-06-05 23:53:00,
2013-06-05 17:02:00,86.0,38.0,-100.00,North,350,6.0,16.0,18,0.00,,,0.00,895.000000,,2013-06-06 00:02:00,
2013-06-05 17:12:00,86.0,38.0,-100.00,North,350,6.0,16.0,18,0.00,,,0.00,895.000000,,2013-06-06 00:12:00,
2013-06-05 17:32:00,86.0,39.0,-100.00,NNE,24,8.0,15.0,19,0.00,,,0.00,730.000000,,2013-06-06 00:32:00,
2013-06-05 17:43:00,86.0,39.0,-100.00,NNE,24,8.0,15.0,19,0.00,,,0.00,730.000000,,2013-06-06 00:43:00,
2013-06-05 17:52:00,86.0,39.0,-100.00,NNE,24,8.0,15.0,19,0.00,,,0.00,730.000000,,2013-06-06 00:52:00,
2013-06-05 18:02:00,86.0,39.0,-100.00,NNE,24,8.0,15.0,19,0.00,,,0.00,730.000000,,2013-06-06 01:02:00,
2013-06-05 18:12:00,86.0,39.0,-100.00,NNE,24,8.0,15.0,19,0.00,,,0.00,730.000000,,2013-06-06 01:12:00,
2013-06-05 18:32:00,84.0,40.0,-100.00,NNE,17,8.0,18.0,21,0.00,,,0.00,543.000000,,2013-06-06 01:32:00,
2013-06-05 18:42:00,84.0,40.0,-100.00,NNE,17,8.0,18.0,21,0.00,,,0.00,543.000000,,2013-06-06 01:42:00,
2013-06-05 18:53:00,84.0,40.0,-100.00,NNE,17,8.0,18.0,21,0.00,,,0.00,543.000000,,2013-06-06 01:53:00,
2013-06-05 19:02:00,84.0,40.0,-100.00,NNE,17,8.0,18.0,21,0.00,,,0.00,543.000000,,2013-06-06 02:02:00,
2013-06-05 19:12:00,84.0,40.0,-100.00,NNE,17,8.0,18.0,21,0.00,,,0.00,543.000000,,2013-06-06 02:12:00,
2013-06-05 19:32:00,81.0,42.0,-100.00,NNW,331,7.0,16.0,25,0.00,,,0.00,350.000000,,2013-06-06 02:32:00,
2013-06-05 19:42:00,81.0,42.0,-100.00,NNW,331,7.0,16.0,25,0.00,,,0.00,350.000000,,2013-06-06 02:42:00,
2013-06-05 19:52:00,81.0,42.0,-100.00,NNW,331,7.0,16.0,25,0.00,,,0.00,350.000000,,2013-06-06 02:52:00,
2013-06-05 20:02:00,81.0,42.0,-100.00,NNW,331,7.0,16.0,25,0.00,,,0.00,350.000000,,2013-06-06 03:02:00,
2013-06-05 20:12:00,81.0,42.0,-100.00,NNW,331,7.0,16.0,25,0.00,,,0.00,350.000000,,2013-06-06 03:12:00,
2013-06-05 20:33:00,75.0,43.0,-100.00,NNW,327,8.0,14.0,32,0.00,,,0.00,146.000000,,2013-06-06 03:33:00,
2013-06-05 20:43:00,75.0,43.0,-100.00,NNW,327,8.0,14.0,32,0.00,,,0.00,146.000000,,2013-06-06 03:43:00,
2013-06-05 20:52:00,75.0,43.0,-100.00,NNW,327,8.0,14.0,32,0.00,,,0.00,146.000000,,2013-06-06 03:52:00,
2013-06-05 21:02:00,75.0,43.0,-100.00,NNW,327,8.0,14.0,32,0.00,,,0.00,146.000000,,2013-06-06 04:02:00,
2013-06-05 21:13:00,75.0,43.0,-100.00,NNW,327,8.0,14.0,32,0.00,,,0.00,146.000000,,2013-06-06 04:13:00,
2013-06-05 21:33:00,68.0,45.0,-100.00,NNW,336,5.0,10.0,44,0.00,,,0.00,16.000000,,2013-06-06 04:33:00,
2013-06-05 21:42:00,68.0,45.0,-100.00,NNW,336,5.0,10.0,44,0.00,,,0.00,16.000000,,2013-06-06 04:42:00,
2013-06-05 21:53:00,68.0,45.0,-100.00,NNW,336,5.0,10.0,44,0.00,,,0.00,16.000000,,2013-06-06 04:53:00,
2013-06-05 22:02:00,68.0,45.0,-100.00,NNW,336,5.0,10.0,44,0.00,,,0.00,16.000000,,2013-06-06 05:02:00,
2013-06-05 22:12:00,68.0,45.0,-100.00,NNW,336,5.0,10.0,44,0.00,,,0.00,16.000000,,2013-06-06 05:12:00,
2013-06-05 22:32:00,64.0,47.0,-100.00,NNW,328,5.0,9.0,53,0.00,,,0.00,0.000000,,2013-06-06 05:32:00,
2013-06-05 22:42:00,64.0,47.0,-100.00,NNW,328,5.0,9.0,53,0.00,,,0.00,0.000000,,2013-06-06 05:42:00,
2013-06-05 22:52:00,64.0,47.0,-100.00,NNW,328,5.0,9.0,53,0.00,,,0.00,0.000000,,2013-06-06 05:52:00,
2013-06-05 23:02:00,64.0,47.0,-100.00,NNW,328,5.0,9.0,53,0.00,,,0.00,0.000000,,2013-06-06 06:02:00,
2013-06-05 23:12:00,64.0,47.0,-100.00,NNW,328,5.0,9.0,53,0.00,,,0.00,0.000000,,2013-06-06 06:12:00,
2013-06-05 23:33:00,60.0,47.0,-100.00,West,271,5.0,6.0,61,0.00,,,0.00,0.000000,,2013-06-06 06:33:00,
2013-06-05 23:42:00,60.0,47.0,-100.00,West,271,5.0,6.0,61,0.00,,,0.00,0.000000,,2013-06-06 06:42:00,
2013-06-05 23:52:00,60.0,47.0,-100.00,West,271,5.0,6.0,61,0.00,,,0.00,0.000000,,2013-06-06 06:52:00,